sensor_id;sensor_type;location;lat;lon;timestamp;P1;durP1;ratioP1;P2;durP2;ratioP2
7191;SDS011;3637;51.494;11.958;2023-11-22T00:00:25;13.10;;;7.43;;
7191;SDS011;3637;51.494;11.958;2023-11-22T00:03:26;11.77;;;7.30;;
7191;SDS011;3637;51.494;11.958;2023-11-22T00:06:30;9.97;;;7.20;;
7191;SDS011;3637;51.494;11.958;2023-11-22T00:09:32;12.03;;;7.30;;
7191;SDS011;3637;51.494;11.958;2023-11-22T00:12:34;11.23;;;7.37;;
7191;SDS011;3637;51.494;11.958;2023-11-22T00:15:38;10.53;;;7.10;;
7191;SDS011;3637;51.494;11.958;2023-11-22T00:18:40;10.47;;;7.07;;
7191;SDS011;3637;51.494;11.958;2023-11-22T00:21:43;9.70;;;6.53;;
7191;SDS011;3637;51.494;11.958;2023-11-22T00:24:45;10.00;;;6.97;;
7191;SDS011;3637;51.494;11.958;2023-11-22T00:27:50;13.37;;;7.27;;
7191;SDS011;3637;51.494;11.958;2023-11-22T00:30:52;10.90;;;6.80;;
7191;SDS011;3637;51.494;11.958;2023-11-22T00:33:53;12.10;;;7.27;;
7191;SDS011;3637;51.494;11.958;2023-11-22T00:36:57;10.90;;;7.10;;
7191;SDS011;3637;51.494;11.958;2023-11-22T00:39:59;10.33;;;6.80;;
7191;SDS011;3637;51.494;11.958;2023-11-22T00:43:00;11.10;;;6.73;;
7191;SDS011;3637;51.494;11.958;2023-11-22T00:46:02;10.53;;;6.57;;
7191;SDS011;3637;51.494;11.958;2023-11-22T00:49:05;11.43;;;6.97;;
7191;SDS011;3637;51.494;11.958;2023-11-22T00:52:09;9.70;;;6.33;;
7191;SDS011;3637;51.494;11.958;2023-11-22T00:55:11;10.77;;;6.70;;
7191;SDS011;3637;51.494;11.958;2023-11-22T00:58:13;10.07;;;6.73;;
7191;SDS011;3637;51.494;11.958;2023-11-22T01:01:15;9.63;;;6.33;;
7191;SDS011;3637;51.494;11.958;2023-11-22T01:04:18;10.07;;;6.13;;
7191;SDS011;3637;51.494;11.958;2023-11-22T01:07:21;9.30;;;5.83;;
7191;SDS011;3637;51.494;11.958;2023-11-22T01:10:23;10.70;;;6.33;;
7191;SDS011;3637;51.494;11.958;2023-11-22T01:13:24;9.67;;;6.03;;
7191;SDS011;3637;51.494;11.958;2023-11-22T01:16:26;11.97;;;6.57;;
7191;SDS011;3637;51.494;11.958;2023-11-22T01:19:28;11.23;;;6.43;;
7191;SDS011;3637;51.494;11.958;2023-11-22T01:22:31;8.40;;;6.10;;
7191;SDS011;3637;51.494;11.958;2023-11-22T01:25:33;9.90;;;5.90;;
7191;SDS011;3637;51.494;11.958;2023-11-22T01:28:35;7.77;;;5.60;;
7191;SDS011;3637;51.494;11.958;2023-11-22T01:31:37;11.57;;;5.90;;
7191;SDS011;3637;51.494;11.958;2023-11-22T01:34:39;10.33;;;5.87;;
7191;SDS011;3637;51.494;11.958;2023-11-22T01:37:42;9.53;;;6.30;;
7191;SDS011;3637;51.494;11.958;2023-11-22T01:40:44;8.70;;;6.43;;
7191;SDS011;3637;51.494;11.958;2023-11-22T01:43:46;9.23;;;5.97;;
7191;SDS011;3637;51.494;11.958;2023-11-22T01:46:48;10.40;;;5.97;;
7191;SDS011;3637;51.494;11.958;2023-11-22T01:49:50;9.30;;;6.20;;
7191;SDS011;3637;51.494;11.958;2023-11-22T01:52:53;8.13;;;5.43;;
7191;SDS011;3637;51.494;11.958;2023-11-22T01:55:55;7.87;;;5.73;;
7191;SDS011;3637;51.494;11.958;2023-11-22T01:58:58;11.53;;;6.20;;
7191;SDS011;3637;51.494;11.958;2023-11-22T02:02:00;9.43;;;6.00;;
7191;SDS011;3637;51.494;11.958;2023-11-22T02:05:03;10.10;;;5.53;;
7191;SDS011;3637;51.494;11.958;2023-11-22T02:08:07;8.73;;;5.50;;
7191;SDS011;3637;51.494;11.958;2023-11-22T02:11:10;7.27;;;5.33;;
7191;SDS011;3637;51.494;11.958;2023-11-22T02:14:12;7.27;;;5.23;;
7191;SDS011;3637;51.494;11.958;2023-11-22T02:17:13;7.90;;;5.20;;
7191;SDS011;3637;51.494;11.958;2023-11-22T02:20:16;8.97;;;5.43;;
7191;SDS011;3637;51.494;11.958;2023-11-22T02:23:20;8.03;;;5.27;;
7191;SDS011;3637;51.494;11.958;2023-11-22T02:26:22;7.57;;;5.10;;
7191;SDS011;3637;51.494;11.958;2023-11-22T02:29:24;8.40;;;5.37;;
7191;SDS011;3637;51.494;11.958;2023-11-22T02:32:27;7.80;;;5.07;;
7191;SDS011;3637;51.494;11.958;2023-11-22T02:35:29;9.07;;;5.37;;
7191;SDS011;3637;51.494;11.958;2023-11-22T02:38:33;8.47;;;5.67;;
7191;SDS011;3637;51.494;11.958;2023-11-22T02:41:35;7.13;;;5.20;;
7191;SDS011;3637;51.494;11.958;2023-11-22T02:44:37;6.97;;;5.10;;
7191;SDS011;3637;51.494;11.958;2023-11-22T02:47:40;9.80;;;5.50;;
7191;SDS011;3637;51.494;11.958;2023-11-22T02:50:46;7.80;;;5.60;;
7191;SDS011;3637;51.494;11.958;2023-11-22T02:53:50;10.00;;;5.73;;
7191;SDS011;3637;51.494;11.958;2023-11-22T02:56:52;7.20;;;5.27;;
7191;SDS011;3637;51.494;11.958;2023-11-22T02:59:54;9.43;;;5.43;;
7191;SDS011;3637;51.494;11.958;2023-11-22T03:02:58;8.03;;;5.63;;
7191;SDS011;3637;51.494;11.958;2023-11-22T03:06:00;7.50;;;5.23;;
7191;SDS011;3637;51.494;11.958;2023-11-22T03:09:03;7.83;;;5.60;;
7191;SDS011;3637;51.494;11.958;2023-11-22T03:12:05;8.77;;;5.20;;
7191;SDS011;3637;51.494;11.958;2023-11-22T03:15:09;6.87;;;5.03;;
7191;SDS011;3637;51.494;11.958;2023-11-22T03:18:11;8.10;;;5.10;;
7191;SDS011;3637;51.494;11.958;2023-11-22T03:21:13;8.57;;;4.87;;
7191;SDS011;3637;51.494;11.958;2023-11-22T03:24:16;10.87;;;5.77;;
7191;SDS011;3637;51.494;11.958;2023-11-22T03:27:18;8.17;;;5.00;;
7191;SDS011;3637;51.494;11.958;2023-11-22T03:30:21;7.87;;;5.77;;
7191;SDS011;3637;51.494;11.958;2023-11-22T03:33:23;8.43;;;5.37;;
7191;SDS011;3637;51.494;11.958;2023-11-22T03:36:24;9.63;;;5.60;;
7191;SDS011;3637;51.494;11.958;2023-11-22T03:39:28;6.60;;;4.70;;
7191;SDS011;3637;51.494;11.958;2023-11-22T03:42:30;11.37;;;5.73;;
7191;SDS011;3637;51.494;11.958;2023-11-22T03:45:32;8.13;;;4.87;;
7191;SDS011;3637;51.494;11.958;2023-11-22T03:48:34;7.43;;;5.17;;
7191;SDS011;3637;51.494;11.958;2023-11-22T03:51:37;9.03;;;5.37;;
7191;SDS011;3637;51.494;11.958;2023-11-22T03:54:41;9.07;;;5.53;;
7191;SDS011;3637;51.494;11.958;2023-11-22T03:57:43;7.20;;;4.63;;
7191;SDS011;3637;51.494;11.958;2023-11-22T04:00:45;7.23;;;5.20;;
7191;SDS011;3637;51.494;11.958;2023-11-22T04:03:46;7.43;;;5.30;;
7191;SDS011;3637;51.494;11.958;2023-11-22T04:06:49;12.50;;;5.20;;
7191;SDS011;3637;51.494;11.958;2023-11-22T04:09:54;8.27;;;5.50;;
7191;SDS011;3637;51.494;11.958;2023-11-22T04:12:56;8.93;;;5.63;;
7191;SDS011;3637;51.494;11.958;2023-11-22T04:15:57;7.83;;;5.23;;
7191;SDS011;3637;51.494;11.958;2023-11-22T04:18:59;8.27;;;5.17;;
7191;SDS011;3637;51.494;11.958;2023-11-22T04:22:01;8.73;;;5.70;;
7191;SDS011;3637;51.494;11.958;2023-11-22T04:25:05;9.37;;;5.60;;
7191;SDS011;3637;51.494;11.958;2023-11-22T04:28:08;7.83;;;5.40;;
7191;SDS011;3637;51.494;11.958;2023-11-22T04:31:10;8.87;;;6.10;;
7191;SDS011;3637;51.494;11.958;2023-11-22T04:34:12;8.83;;;5.50;;
7191;SDS011;3637;51.494;11.958;2023-11-22T04:37:14;12.90;;;5.93;;
7191;SDS011;3637;51.494;11.958;2023-11-22T04:40:17;8.67;;;5.47;;
7191;SDS011;3637;51.494;11.958;2023-11-22T04:43:19;8.23;;;4.77;;
7191;SDS011;3637;51.494;11.958;2023-11-22T04:46:21;9.40;;;5.37;;
7191;SDS011;3637;51.494;11.958;2023-11-22T04:49:22;6.57;;;4.73;;
7191;SDS011;3637;51.494;11.958;2023-11-22T04:52:24;8.50;;;5.33;;
7191;SDS011;3637;51.494;11.958;2023-11-22T04:55:28;10.27;;;5.43;;
7191;SDS011;3637;51.494;11.958;2023-11-22T04:58:29;8.10;;;4.80;;
7191;SDS011;3637;51.494;11.958;2023-11-22T05:01:31;7.57;;;5.50;;
7191;SDS011;3637;51.494;11.958;2023-11-22T05:04:33;8.50;;;5.43;;
7191;SDS011;3637;51.494;11.958;2023-11-22T05:07:35;7.67;;;5.17;;
7191;SDS011;3637;51.494;11.958;2023-11-22T05:10:38;12.00;;;5.93;;
7191;SDS011;3637;51.494;11.958;2023-11-22T05:13:40;9.77;;;5.30;;
7191;SDS011;3637;51.494;11.958;2023-11-22T05:16:43;9.40;;;5.97;;
7191;SDS011;3637;51.494;11.958;2023-11-22T05:19:45;8.20;;;5.50;;
7191;SDS011;3637;51.494;11.958;2023-11-22T05:22:47;7.33;;;5.20;;
7191;SDS011;3637;51.494;11.958;2023-11-22T05:25:50;9.17;;;5.53;;
7191;SDS011;3637;51.494;11.958;2023-11-22T05:28:52;8.90;;;5.60;;
7191;SDS011;3637;51.494;11.958;2023-11-22T05:31:54;9.77;;;5.50;;
7191;SDS011;3637;51.494;11.958;2023-11-22T05:34:56;7.93;;;5.57;;
7191;SDS011;3637;51.494;11.958;2023-11-22T05:37:58;10.43;;;5.27;;
7191;SDS011;3637;51.494;11.958;2023-11-22T05:41:01;10.33;;;5.53;;
7191;SDS011;3637;51.494;11.958;2023-11-22T05:44:03;9.40;;;5.23;;
7191;SDS011;3637;51.494;11.958;2023-11-22T05:47:06;13.10;;;6.10;;
7191;SDS011;3637;51.494;11.958;2023-11-22T05:50:07;9.33;;;5.40;;
7191;SDS011;3637;51.494;11.958;2023-11-22T05:53:10;9.80;;;5.43;;
7191;SDS011;3637;51.494;11.958;2023-11-22T05:56:13;9.33;;;5.93;;
7191;SDS011;3637;51.494;11.958;2023-11-22T05:59:17;8.87;;;5.50;;
7191;SDS011;3637;51.494;11.958;2023-11-22T06:02:18;8.57;;;5.83;;
7191;SDS011;3637;51.494;11.958;2023-11-22T06:05:20;9.73;;;5.57;;
7191;SDS011;3637;51.494;11.958;2023-11-22T06:08:22;9.23;;;5.70;;
7191;SDS011;3637;51.494;11.958;2023-11-22T06:11:26;8.63;;;5.57;;
7191;SDS011;3637;51.494;11.958;2023-11-22T06:14:27;8.80;;;5.43;;
7191;SDS011;3637;51.494;11.958;2023-11-22T06:17:29;8.00;;;5.70;;
7191;SDS011;3637;51.494;11.958;2023-11-22T06:20:31;9.80;;;5.37;;
7191;SDS011;3637;51.494;11.958;2023-11-22T06:23:33;8.73;;;5.43;;
7191;SDS011;3637;51.494;11.958;2023-11-22T06:26:36;9.30;;;6.03;;
7191;SDS011;3637;51.494;11.958;2023-11-22T06:29:40;9.07;;;5.67;;
7191;SDS011;3637;51.494;11.958;2023-11-22T06:32:44;10.97;;;5.60;;
7191;SDS011;3637;51.494;11.958;2023-11-22T06:35:46;7.73;;;5.20;;
7191;SDS011;3637;51.494;11.958;2023-11-22T06:38:48;8.83;;;6.37;;
7191;SDS011;3637;51.494;11.958;2023-11-22T06:41:51;7.83;;;5.77;;
7191;SDS011;3637;51.494;11.958;2023-11-22T06:44:53;9.60;;;6.00;;
7191;SDS011;3637;51.494;11.958;2023-11-22T06:47:58;13.93;;;7.07;;
7191;SDS011;3637;51.494;11.958;2023-11-22T06:51:00;10.17;;;6.17;;
7191;SDS011;3637;51.494;11.958;2023-11-22T06:54:02;10.30;;;5.93;;
7191;SDS011;3637;51.494;11.958;2023-11-22T06:57:05;10.20;;;6.20;;
7191;SDS011;3637;51.494;11.958;2023-11-22T07:00:08;9.23;;;6.20;;
7191;SDS011;3637;51.494;11.958;2023-11-22T07:03:10;10.30;;;5.80;;
7191;SDS011;3637;51.494;11.958;2023-11-22T07:06:13;11.23;;;6.20;;
7191;SDS011;3637;51.494;11.958;2023-11-22T07:09:15;18.20;;;7.07;;
7191;SDS011;3637;51.494;11.958;2023-11-22T07:12:18;166.60;;;21.57;;
7191;SDS011;3637;51.494;11.958;2023-11-22T07:15:20;59.77;;;12.63;;
7191;SDS011;3637;51.494;11.958;2023-11-22T07:18:22;13.63;;;7.13;;
7191;SDS011;3637;51.494;11.958;2023-11-22T07:21:24;13.90;;;6.93;;
7191;SDS011;3637;51.494;11.958;2023-11-22T07:24:26;12.73;;;7.43;;
7191;SDS011;3637;51.494;11.958;2023-11-22T07:27:32;13.93;;;7.20;;
7191;SDS011;3637;51.494;11.958;2023-11-22T07:30:37;13.23;;;7.60;;
7191;SDS011;3637;51.494;11.958;2023-11-22T07:33:41;17.03;;;7.50;;
7191;SDS011;3637;51.494;11.958;2023-11-22T07:36:43;163.07;;;24.27;;
7191;SDS011;3637;51.494;11.958;2023-11-22T07:39:44;224.03;;;28.20;;
7191;SDS011;3637;51.494;11.958;2023-11-22T07:42:48;55.67;;;11.80;;
7191;SDS011;3637;51.494;11.958;2023-11-22T07:45:50;12.50;;;6.50;;
7191;SDS011;3637;51.494;11.958;2023-11-22T07:48:53;10.03;;;6.40;;
7191;SDS011;3637;51.494;11.958;2023-11-22T07:51:57;8.07;;;5.30;;
7191;SDS011;3637;51.494;11.958;2023-11-22T07:55:00;9.63;;;5.67;;
7191;SDS011;3637;51.494;11.958;2023-11-22T07:58:04;8.83;;;5.73;;
7191;SDS011;3637;51.494;11.958;2023-11-22T08:01:07;10.60;;;6.03;;
7191;SDS011;3637;51.494;11.958;2023-11-22T08:04:13;9.87;;;5.77;;
7191;SDS011;3637;51.494;11.958;2023-11-22T08:07:15;8.50;;;5.53;;
7191;SDS011;3637;51.494;11.958;2023-11-22T08:10:17;8.20;;;5.60;;
7191;SDS011;3637;51.494;11.958;2023-11-22T08:13:21;8.03;;;5.80;;
7191;SDS011;3637;51.494;11.958;2023-11-22T08:16:23;10.10;;;5.53;;
7191;SDS011;3637;51.494;11.958;2023-11-22T08:19:25;7.47;;;5.47;;
7191;SDS011;3637;51.494;11.958;2023-11-22T08:22:27;9.97;;;5.97;;
7191;SDS011;3637;51.494;11.958;2023-11-22T08:25:29;23.70;;;6.63;;
7191;SDS011;3637;51.494;11.958;2023-11-22T08:28:33;13.33;;;6.00;;
7191;SDS011;3637;51.494;11.958;2023-11-22T08:31:35;9.90;;;5.50;;
7191;SDS011;3637;51.494;11.958;2023-11-22T08:34:37;9.60;;;5.20;;
7191;SDS011;3637;51.494;11.958;2023-11-22T08:37:39;8.53;;;5.77;;
7191;SDS011;3637;51.494;11.958;2023-11-22T08:40:42;7.97;;;5.20;;
7191;SDS011;3637;51.494;11.958;2023-11-22T08:43:46;9.47;;;5.90;;
7191;SDS011;3637;51.494;11.958;2023-11-22T08:46:48;37.47;;;8.20;;
7191;SDS011;3637;51.494;11.958;2023-11-22T08:49:49;8.77;;;5.43;;
7191;SDS011;3637;51.494;11.958;2023-11-22T08:52:51;10.87;;;5.93;;
7191;SDS011;3637;51.494;11.958;2023-11-22T08:55:53;9.47;;;5.27;;
7191;SDS011;3637;51.494;11.958;2023-11-22T08:58:57;10.37;;;5.97;;
7191;SDS011;3637;51.494;11.958;2023-11-22T09:01:59;8.47;;;5.87;;
7191;SDS011;3637;51.494;11.958;2023-11-22T09:05:02;9.70;;;6.13;;
7191;SDS011;3637;51.494;11.958;2023-11-22T09:08:06;11.07;;;6.10;;
7191;SDS011;3637;51.494;11.958;2023-11-22T09:11:13;9.17;;;6.13;;
7191;SDS011;3637;51.494;11.958;2023-11-22T09:14:17;16.77;;;7.50;;
7191;SDS011;3637;51.494;11.958;2023-11-22T09:17:20;18.40;;;7.77;;
7191;SDS011;3637;51.494;11.958;2023-11-22T09:20:22;20.50;;;7.33;;
7191;SDS011;3637;51.494;11.958;2023-11-22T09:23:24;22.47;;;7.43;;
7191;SDS011;3637;51.494;11.958;2023-11-22T09:26:27;18.33;;;6.60;;
7191;SDS011;3637;51.494;11.958;2023-11-22T09:29:31;25.60;;;8.20;;
7191;SDS011;3637;51.494;11.958;2023-11-22T09:32:33;60.47;;;11.97;;
7191;SDS011;3637;51.494;11.958;2023-11-22T09:35:35;43.23;;;10.17;;
7191;SDS011;3637;51.494;11.958;2023-11-22T09:38:39;127.80;;;17.07;;
7191;SDS011;3637;51.494;11.958;2023-11-22T09:41:41;30.43;;;8.90;;
7191;SDS011;3637;51.494;11.958;2023-11-22T09:44:44;10.23;;;6.20;;
7191;SDS011;3637;51.494;11.958;2023-11-22T09:47:46;10.67;;;6.73;;
7191;SDS011;3637;51.494;11.958;2023-11-22T09:50:49;8.30;;;5.93;;
7191;SDS011;3637;51.494;11.958;2023-11-22T09:53:58;10.97;;;6.93;;
7191;SDS011;3637;51.494;11.958;2023-11-22T09:57:04;10.90;;;6.70;;
7191;SDS011;3637;51.494;11.958;2023-11-22T10:00:10;11.47;;;6.47;;
7191;SDS011;3637;51.494;11.958;2023-11-22T10:03:14;9.23;;;6.30;;
7191;SDS011;3637;51.494;11.958;2023-11-22T10:06:17;9.70;;;6.70;;
7191;SDS011;3637;51.494;11.958;2023-11-22T10:09:20;13.63;;;6.90;;
7191;SDS011;3637;51.494;11.958;2023-11-22T10:12:24;10.03;;;7.23;;
7191;SDS011;3637;51.494;11.958;2023-11-22T10:15:27;14.20;;;7.03;;
7191;SDS011;3637;51.494;11.958;2023-11-22T10:18:29;11.73;;;7.27;;
7191;SDS011;3637;51.494;11.958;2023-11-22T10:21:31;10.90;;;6.60;;
7191;SDS011;3637;51.494;11.958;2023-11-22T10:24:33;12.07;;;7.10;;
7191;SDS011;3637;51.494;11.958;2023-11-22T10:27:36;11.50;;;6.87;;
7191;SDS011;3637;51.494;11.958;2023-11-22T10:30:40;10.63;;;7.43;;
7191;SDS011;3637;51.494;11.958;2023-11-22T10:33:42;10.33;;;7.47;;
7191;SDS011;3637;51.494;11.958;2023-11-22T10:36:44;13.10;;;8.30;;
7191;SDS011;3637;51.494;11.958;2023-11-22T10:39:50;13.90;;;8.30;;
7191;SDS011;3637;51.494;11.958;2023-11-22T10:42:52;13.93;;;8.23;;
7191;SDS011;3637;51.494;11.958;2023-11-22T10:45:56;9.90;;;6.60;;
7191;SDS011;3637;51.494;11.958;2023-11-22T10:48:59;10.77;;;7.33;;
7191;SDS011;3637;51.494;11.958;2023-11-22T10:52:01;11.63;;;8.53;;
7191;SDS011;3637;51.494;11.958;2023-11-22T10:55:07;10.07;;;7.63;;
7191;SDS011;3637;51.494;11.958;2023-11-22T10:58:12;12.33;;;8.00;;
7191;SDS011;3637;51.494;11.958;2023-11-22T11:01:17;15.40;;;8.47;;
7191;SDS011;3637;51.494;11.958;2023-11-22T11:04:24;10.40;;;7.83;;
7191;SDS011;3637;51.494;11.958;2023-11-22T11:07:40;12.83;;;8.27;;
7191;SDS011;3637;51.494;11.958;2023-11-22T11:10:49;12.53;;;8.00;;
7191;SDS011;3637;51.494;11.958;2023-11-22T11:13:51;11.37;;;7.63;;
7191;SDS011;3637;51.494;11.958;2023-11-22T11:16:55;10.30;;;7.33;;
7191;SDS011;3637;51.494;11.958;2023-11-22T11:19:58;12.20;;;7.23;;
7191;SDS011;3637;51.494;11.958;2023-11-22T11:23:01;11.03;;;7.43;;
7191;SDS011;3637;51.494;11.958;2023-11-22T11:26:08;10.43;;;7.70;;
7191;SDS011;3637;51.494;11.958;2023-11-22T11:29:29;11.20;;;7.77;;
7191;SDS011;3637;51.494;11.958;2023-11-22T11:32:33;10.30;;;7.77;;
7191;SDS011;3637;51.494;11.958;2023-11-22T11:35:38;72.80;;;13.73;;
7191;SDS011;3637;51.494;11.958;2023-11-22T11:38:40;19.13;;;9.20;;
7191;SDS011;3637;51.494;11.958;2023-11-22T11:41:42;16.33;;;8.40;;
7191;SDS011;3637;51.494;11.958;2023-11-22T11:45:05;13.27;;;7.93;;
7191;SDS011;3637;51.494;11.958;2023-11-22T11:48:11;14.77;;;8.27;;
7191;SDS011;3637;51.494;11.958;2023-11-22T11:51:14;12.63;;;8.73;;
7191;SDS011;3637;51.494;11.958;2023-11-22T11:54:16;11.13;;;8.13;;
7191;SDS011;3637;51.494;11.958;2023-11-22T11:57:18;14.03;;;8.50;;
7191;SDS011;3637;51.494;11.958;2023-11-22T12:00:20;13.40;;;8.67;;
7191;SDS011;3637;51.494;11.958;2023-11-22T12:03:25;13.23;;;8.83;;
7191;SDS011;3637;51.494;11.958;2023-11-22T12:06:28;12.40;;;8.40;;
7191;SDS011;3637;51.494;11.958;2023-11-22T12:09:31;12.93;;;9.07;;
7191;SDS011;3637;51.494;11.958;2023-11-22T12:12:35;15.40;;;8.67;;
7191;SDS011;3637;51.494;11.958;2023-11-22T12:15:39;12.40;;;8.40;;
7191;SDS011;3637;51.494;11.958;2023-11-22T12:18:44;13.27;;;8.60;;
7191;SDS011;3637;51.494;11.958;2023-11-22T12:21:47;10.40;;;7.53;;
7191;SDS011;3637;51.494;11.958;2023-11-22T12:24:50;13.43;;;8.60;;
7191;SDS011;3637;51.494;11.958;2023-11-22T12:27:53;15.10;;;8.87;;
7191;SDS011;3637;51.494;11.958;2023-11-22T12:31:05;16.03;;;9.23;;
7191;SDS011;3637;51.494;11.958;2023-11-22T12:34:10;12.57;;;8.37;;
7191;SDS011;3637;51.494;11.958;2023-11-22T12:37:13;12.63;;;8.90;;
7191;SDS011;3637;51.494;11.958;2023-11-22T12:40:15;14.23;;;10.13;;
7191;SDS011;3637;51.494;11.958;2023-11-22T12:43:18;14.17;;;8.77;;
7191;SDS011;3637;51.494;11.958;2023-11-22T12:46:20;15.47;;;8.90;;
7191;SDS011;3637;51.494;11.958;2023-11-22T12:49:24;12.30;;;8.60;;
7191;SDS011;3637;51.494;11.958;2023-11-22T12:52:26;12.73;;;8.83;;
7191;SDS011;3637;51.494;11.958;2023-11-22T12:55:28;16.17;;;9.53;;
7191;SDS011;3637;51.494;11.958;2023-11-22T12:58:30;15.23;;;9.23;;
7191;SDS011;3637;51.494;11.958;2023-11-22T13:01:34;14.20;;;9.20;;
7191;SDS011;3637;51.494;11.958;2023-11-22T13:04:37;16.60;;;9.20;;
7191;SDS011;3637;51.494;11.958;2023-11-22T13:07:39;14.63;;;8.90;;
7191;SDS011;3637;51.494;11.958;2023-11-22T13:10:43;16.13;;;9.87;;
7191;SDS011;3637;51.494;11.958;2023-11-22T13:13:47;12.53;;;9.17;;
7191;SDS011;3637;51.494;11.958;2023-11-22T13:16:50;16.97;;;9.47;;
7191;SDS011;3637;51.494;11.958;2023-11-22T13:19:53;13.03;;;8.33;;
7191;SDS011;3637;51.494;11.958;2023-11-22T13:22:55;13.70;;;9.27;;
7191;SDS011;3637;51.494;11.958;2023-11-22T13:25:57;14.57;;;9.20;;
7191;SDS011;3637;51.494;11.958;2023-11-22T13:28:59;14.90;;;9.13;;
7191;SDS011;3637;51.494;11.958;2023-11-22T13:32:01;15.60;;;8.93;;
7191;SDS011;3637;51.494;11.958;2023-11-22T13:35:06;13.50;;;9.37;;
7191;SDS011;3637;51.494;11.958;2023-11-22T13:38:14;14.33;;;9.10;;
7191;SDS011;3637;51.494;11.958;2023-11-22T13:41:17;12.00;;;8.30;;
7191;SDS011;3637;51.494;11.958;2023-11-22T13:44:19;15.90;;;9.63;;
7191;SDS011;3637;51.494;11.958;2023-11-22T13:47:21;12.07;;;8.93;;
7191;SDS011;3637;51.494;11.958;2023-11-22T13:50:24;15.73;;;9.50;;
7191;SDS011;3637;51.494;11.958;2023-11-22T13:53:27;16.93;;;10.10;;
7191;SDS011;3637;51.494;11.958;2023-11-22T13:56:33;13.93;;;9.40;;
7191;SDS011;3637;51.494;11.958;2023-11-22T13:59:35;23.53;;;18.70;;
7191;SDS011;3637;51.494;11.958;2023-11-22T14:02:37;16.83;;;11.00;;
7191;SDS011;3637;51.494;11.958;2023-11-22T14:05:41;17.47;;;11.07;;
7191;SDS011;3637;51.494;11.958;2023-11-22T14:08:43;17.50;;;11.23;;
7191;SDS011;3637;51.494;11.958;2023-11-22T14:11:45;17.47;;;11.00;;
7191;SDS011;3637;51.494;11.958;2023-11-22T14:17:49;16.63;;;11.40;;
7191;SDS011;3637;51.494;11.958;2023-11-22T14:20:54;14.77;;;9.77;;
7191;SDS011;3637;51.494;11.958;2023-11-22T14:23:56;12.57;;;9.63;;
7191;SDS011;3637;51.494;11.958;2023-11-22T14:26:58;12.87;;;9.60;;
7191;SDS011;3637;51.494;11.958;2023-11-22T14:30:00;11.70;;;8.30;;
7191;SDS011;3637;51.494;11.958;2023-11-22T14:33:07;9.93;;;7.73;;
7191;SDS011;3637;51.494;11.958;2023-11-22T14:36:11;13.00;;;8.57;;
7191;SDS011;3637;51.494;11.958;2023-11-22T14:39:13;12.87;;;9.03;;
7191;SDS011;3637;51.494;11.958;2023-11-22T14:42:15;10.43;;;7.83;;
7191;SDS011;3637;51.494;11.958;2023-11-22T14:45:17;11.30;;;8.10;;
7191;SDS011;3637;51.494;11.958;2023-11-22T14:48:20;11.90;;;8.10;;
7191;SDS011;3637;51.494;11.958;2023-11-22T14:51:24;10.53;;;7.87;;
7191;SDS011;3637;51.494;11.958;2023-11-22T14:54:26;15.00;;;9.07;;
7191;SDS011;3637;51.494;11.958;2023-11-22T14:57:28;12.37;;;7.97;;
7191;SDS011;3637;51.494;11.958;2023-11-22T15:00:30;11.27;;;8.17;;
7191;SDS011;3637;51.494;11.958;2023-11-22T15:03:32;12.10;;;8.57;;
7191;SDS011;3637;51.494;11.958;2023-11-22T15:06:36;11.30;;;8.33;;
7191;SDS011;3637;51.494;11.958;2023-11-22T15:09:38;13.27;;;8.50;;
7191;SDS011;3637;51.494;11.958;2023-11-22T15:12:40;12.43;;;8.70;;
7191;SDS011;3637;51.494;11.958;2023-11-22T15:15:42;15.30;;;8.67;;
7191;SDS011;3637;51.494;11.958;2023-11-22T15:18:44;10.73;;;8.03;;
7191;SDS011;3637;51.494;11.958;2023-11-22T15:21:48;13.27;;;9.20;;
7191;SDS011;3637;51.494;11.958;2023-11-22T15:24:50;12.10;;;8.67;;
7191;SDS011;3637;51.494;11.958;2023-11-22T15:27:52;12.17;;;9.30;;
7191;SDS011;3637;51.494;11.958;2023-11-22T15:30:54;12.57;;;9.10;;
7191;SDS011;3637;51.494;11.958;2023-11-22T15:33:58;13.30;;;9.47;;
7191;SDS011;3637;51.494;11.958;2023-11-22T15:37:02;13.50;;;9.47;;
7191;SDS011;3637;51.494;11.958;2023-11-22T15:40:05;12.63;;;9.93;;
7191;SDS011;3637;51.494;11.958;2023-11-22T15:43:10;15.93;;;9.57;;
7191;SDS011;3637;51.494;11.958;2023-11-22T15:46:13;15.80;;;10.33;;
7191;SDS011;3637;51.494;11.958;2023-11-22T15:49:18;13.97;;;9.80;;
7191;SDS011;3637;51.494;11.958;2023-11-22T15:52:21;14.43;;;9.23;;
7191;SDS011;3637;51.494;11.958;2023-11-22T15:55:23;11.83;;;9.37;;
7191;SDS011;3637;51.494;11.958;2023-11-22T15:58:26;15.87;;;10.17;;
7191;SDS011;3637;51.494;11.958;2023-11-22T16:01:28;13.70;;;9.87;;
7191;SDS011;3637;51.494;11.958;2023-11-22T16:04:31;13.27;;;9.37;;
7191;SDS011;3637;51.494;11.958;2023-11-22T16:07:34;15.37;;;10.20;;
7191;SDS011;3637;51.494;11.958;2023-11-22T16:10:36;15.90;;;10.20;;
7191;SDS011;3637;51.494;11.958;2023-11-22T16:13:38;14.57;;;9.33;;
7191;SDS011;3637;51.494;11.958;2023-11-22T16:16:41;12.70;;;9.03;;
7191;SDS011;3637;51.494;11.958;2023-11-22T16:19:44;12.77;;;9.20;;
7191;SDS011;3637;51.494;11.958;2023-11-22T16:22:48;15.03;;;10.23;;
7191;SDS011;3637;51.494;11.958;2023-11-22T16:25:51;14.10;;;10.57;;
7191;SDS011;3637;51.494;11.958;2023-11-22T16:28:53;14.37;;;10.00;;
7191;SDS011;3637;51.494;11.958;2023-11-22T16:31:54;17.33;;;10.27;;
7191;SDS011;3637;51.494;11.958;2023-11-22T16:34:57;16.47;;;10.73;;
7191;SDS011;3637;51.494;11.958;2023-11-22T16:38:01;14.10;;;10.00;;
7191;SDS011;3637;51.494;11.958;2023-11-22T16:41:04;16.70;;;10.57;;
7191;SDS011;3637;51.494;11.958;2023-11-22T16:44:06;14.97;;;10.33;;
7191;SDS011;3637;51.494;11.958;2023-11-22T16:47:07;14.50;;;10.20;;
7191;SDS011;3637;51.494;11.958;2023-11-22T16:50:09;16.53;;;10.43;;
7191;SDS011;3637;51.494;11.958;2023-11-22T16:53:13;14.80;;;10.23;;
7191;SDS011;3637;51.494;11.958;2023-11-22T16:56:15;14.03;;;10.60;;
7191;SDS011;3637;51.494;11.958;2023-11-22T16:59:19;15.60;;;10.20;;
7191;SDS011;3637;51.494;11.958;2023-11-22T17:02:21;15.13;;;10.03;;
7191;SDS011;3637;51.494;11.958;2023-11-22T17:05:23;15.40;;;9.93;;
7191;SDS011;3637;51.494;11.958;2023-11-22T17:08:26;13.40;;;10.17;;
7191;SDS011;3637;51.494;11.958;2023-11-22T17:11:28;14.43;;;10.57;;
7191;SDS011;3637;51.494;11.958;2023-11-22T17:14:30;12.60;;;9.77;;
7191;SDS011;3637;51.494;11.958;2023-11-22T17:17:32;14.93;;;10.63;;
7191;SDS011;3637;51.494;11.958;2023-11-22T17:20:35;16.77;;;9.83;;
7191;SDS011;3637;51.494;11.958;2023-11-22T17:23:38;16.00;;;10.27;;
7191;SDS011;3637;51.494;11.958;2023-11-22T17:26:40;18.37;;;10.43;;
7191;SDS011;3637;51.494;11.958;2023-11-22T17:29:42;13.93;;;9.67;;
7191;SDS011;3637;51.494;11.958;2023-11-22T17:32:44;13.80;;;9.90;;
7191;SDS011;3637;51.494;11.958;2023-11-22T17:35:46;13.63;;;10.23;;
7191;SDS011;3637;51.494;11.958;2023-11-22T17:38:49;13.57;;;9.97;;
7191;SDS011;3637;51.494;11.958;2023-11-22T17:41:51;15.30;;;10.13;;
7191;SDS011;3637;51.494;11.958;2023-11-22T17:44:56;15.50;;;10.33;;
7191;SDS011;3637;51.494;11.958;2023-11-22T17:47:58;13.90;;;10.37;;
7191;SDS011;3637;51.494;11.958;2023-11-22T17:51:00;15.43;;;10.23;;
7191;SDS011;3637;51.494;11.958;2023-11-22T17:54:03;13.60;;;10.60;;
7191;SDS011;3637;51.494;11.958;2023-11-22T17:57:07;18.97;;;10.40;;
7191;SDS011;3637;51.494;11.958;2023-11-22T18:00:10;14.90;;;10.63;;
7191;SDS011;3637;51.494;11.958;2023-11-22T18:03:14;15.47;;;10.83;;
7191;SDS011;3637;51.494;11.958;2023-11-22T18:06:15;15.17;;;10.57;;
7191;SDS011;3637;51.494;11.958;2023-11-22T18:09:20;13.23;;;10.10;;
7191;SDS011;3637;51.494;11.958;2023-11-22T18:12:22;13.77;;;10.20;;
7191;SDS011;3637;51.494;11.958;2023-11-22T18:15:24;15.00;;;11.00;;
7191;SDS011;3637;51.494;11.958;2023-11-22T18:18:27;13.17;;;10.37;;
7191;SDS011;3637;51.494;11.958;2023-11-22T18:21:29;14.30;;;10.30;;
7191;SDS011;3637;51.494;11.958;2023-11-22T18:24:32;14.23;;;10.77;;
7191;SDS011;3637;51.494;11.958;2023-11-22T18:27:34;14.10;;;10.20;;